Time;durP1;ratioP1;P1;durP2;ratioP2;P2;SDS_P1;SDS_P2;PMS_P1;PMS_P2;Temp;Humidity;BMP_temperature;BMP_pressure;BME280_temperature;BME280_humidity;BME280_pressure;Samples;Min_cycle;Max_cycle;Signal;HPM_P1;HPM_P2
2022/01/21 00:00:23;;;;;;;3.65;1.30;;;;;;;;;;4988336;28;20236;-34
2022/01/21 00:02:50;;;;;;;4.70;1.63;;;;;;;;;;4988146;28;20718;-33
2022/01/21 00:05:18;;;;;;;4.80;1.52;;;;;;;;;;4990064;28;20323;-35
2022/01/21 00:07:45;;;;;;;6.40;1.90;;;;;;;;;;4987724;28;20240;-32
2022/01/21 00:10:12;;;;;;;5.55;1.50;;;;;;;;;;4989711;28;20253;-33
2022/01/21 00:12:39;;;;;;;3.88;1.55;;;;;;;;;;4987748;28;20236;-36
2022/01/21 00:15:06;;;;;;;3.78;1.50;;;;;;;;;;4988237;28;21888;-33
2022/01/21 00:17:33;;;;;;;4.22;1.70;;;;;;;;;;4993305;28;20232;-36
2022/01/21 00:31:06;;;;;;;7.20;2.17;;;;;;;;;;4991667;28;20414;-34
2022/01/21 00:33:33;;;;;;;9.23;1.77;;;;;;;;;;5011581;28;20521;-36
2022/01/21 00:36:00;;;;;;;14.38;1.75;;;;;;;;;;4995988;28;20608;-38
2022/01/21 00:38:29;;;;;;;8.95;1.90;;;;;;;;;;4998348;28;20242;-36
2022/01/21 00:40:59;;;;;;;15.77;2.05;;;;;;;;;;4993860;28;20921;-33
2022/01/21 00:43:31;;;;;;;7.18;1.73;;;;;;;;;;4997614;28;20227;-34
2022/01/21 00:45:58;;;;;;;6.72;1.42;;;;;;;;;;4998571;28;20236;-35
2022/01/21 00:48:25;;;;;;;6.20;1.40;;;;;;;;;;4999797;28;20242;-33
2022/01/21 00:50:52;;;;;;;5.93;1.40;;;;;;;;;;4996797;28;20228;-34
2022/01/21 00:53:19;;;;;;;9.07;1.45;;;;;;;;;;4991414;28;20238;-34
2022/01/21 00:55:46;;;;;;;9.05;1.60;;;;;;;;;;4991217;28;20774;-37
2022/01/21 00:58:13;;;;;;;12.07;1.48;;;;;;;;;;4991159;28;20798;-36
2022/01/21 01:00:40;;;;;;;9.55;2.13;;;;;;;;;;4991212;28;20224;-35
2022/01/21 01:03:08;;;;;;;6.03;1.60;;;;;;;;;;4989832;28;20232;-35
2022/01/21 01:05:35;;;;;;;6.03;1.30;;;;;;;;;;4990201;28;20234;-34
2022/01/21 01:08:03;;;;;;;6.68;2.03;;;;;;;;;;4989351;28;20824;-34
2022/01/21 01:10:44;;;;;;;4.45;1.52;;;;;;;;;;4990120;28;20238;-33
2022/01/21 01:21:48;;;;;;;5.78;1.60;;;;;;;;;;4994675;28;20232;-36
2022/01/21 01:29:46;;;;;;;7.93;1.38;;;;;;;;;;4993568;28;20235;-34
2022/01/21 01:32:13;;;;;;;4.70;1.60;;;;;;;;;;4994260;28;20228;-34
2022/01/21 01:34:40;;;;;;;6.43;1.50;;;;;;;;;;4994582;28;20232;-35
2022/01/21 01:37:15;;;;;;;2.95;1.10;;;;;;;;;;4994441;28;20239;-33
2022/01/21 01:39:46;;;;;;;5.55;1.40;;;;;;;;;;4994304;28;20235;-34
2022/01/21 01:50:12;;;;;;;4.18;1.10;;;;;;;;;;4993272;28;20246;-33
2022/01/21 01:52:38;;;;;;;4.88;1.02;;;;;;;;;;4993750;28;20235;-34
2022/01/21 01:55:05;;;;;;;4.07;1.27;;;;;;;;;;4993796;28;20227;-33
2022/01/21 01:57:33;;;;;;;7.45;1.58;;;;;;;;;;4994154;28;20228;-34
2022/01/21 02:00:00;;;;;;;2.53;1.15;;;;;;;;;;4994226;28;20243;-36
2022/01/21 02:02:27;;;;;;;4.85;1.08;;;;;;;;;;4995288;28;20225;-33
2022/01/21 02:04:54;;;;;;;4.78;1.05;;;;;;;;;;4990423;28;20236;-34
2022/01/21 02:07:21;;;;;;;3.50;0.98;;;;;;;;;;4989270;28;20236;-34
2022/01/21 02:09:48;;;;;;;7.95;1.35;;;;;;;;;;4991497;28;21341;-34
2022/01/21 02:12:15;;;;;;;2.88;1.30;;;;;;;;;;4992894;28;20976;-33
2022/01/21 02:14:49;;;;;;;3.28;1.25;;;;;;;;;;4992146;28;20239;-34
2022/01/21 02:21:28;;;;;;;3.45;1.10;;;;;;;;;;4994836;28;20741;-36
2022/01/21 02:22:49;;;;;;;2.97;0.95;;;;;;;;;;4991325;28;20228;-35
2022/01/21 02:25:19;;;;;;;4.40;1.10;;;;;;;;;;4993361;28;20243;-35
2022/01/21 02:27:47;;;;;;;3.80;1.13;;;;;;;;;;4993570;28;20246;-35
2022/01/21 02:30:18;;;;;;;4.70;0.90;;;;;;;;;;4992819;28;20246;-33
2022/01/21 02:32:45;;;;;;;3.72;0.88;;;;;;;;;;4993515;28;20240;-34
2022/01/21 02:35:13;;;;;;;6.60;0.95;;;;;;;;;;4993556;28;20239;-34
2022/01/21 02:37:40;;;;;;;4.22;1.08;;;;;;;;;;4992541;28;20239;-33
2022/01/21 02:40:07;;;;;;;3.72;1.05;;;;;;;;;;4993465;28;20243;-36
2022/01/21 02:42:33;;;;;;;4.07;1.05;;;;;;;;;;4992061;28;20229;-32
2022/01/21 02:45:00;;;;;;;4.28;1.05;;;;;;;;;;4992909;28;20236;-35
2022/01/21 02:47:27;;;;;;;3.40;1.02;;;;;;;;;;4992911;28;20255;-37
2022/01/21 02:49:54;;;;;;;6.35;1.40;;;;;;;;;;4993453;28;21132;-32
2022/01/21 02:52:25;;;;;;;2.33;0.90;;;;;;;;;;4990552;28;20269;-34
2022/01/21 02:54:52;;;;;;;3.25;0.80;;;;;;;;;;4993174;28;20231;-37
2022/01/21 02:57:19;;;;;;;2.05;0.85;;;;;;;;;;4992839;28;20235;-35
2022/01/21 02:59:46;;;;;;;3.08;1.00;;;;;;;;;;4990966;28;20232;-36
2022/01/21 03:02:14;;;;;;;2.70;0.75;;;;;;;;;;4993645;28;20721;-33
2022/01/21 03:04:58;;;;;;;3.63;1.38;;;;;;;;;;4993302;28;20319;-33
2022/01/21 03:07:26;;;;;;;3.97;1.10;;;;;;;;;;4993004;28;20765;-32
2022/01/21 03:09:53;;;;;;;2.95;1.13;;;;;;;;;;4991629;28;20240;-37
2022/01/21 03:12:21;;;;;;;2.78;0.95;;;;;;;;;;4992651;28;20240;-34
2022/01/21 03:14:48;;;;;;;3.35;0.90;;;;;;;;;;4993023;28;20251;-35
2022/01/21 03:17:15;;;;;;;3.70;1.05;;;;;;;;;;4993050;28;20240;-33
2022/01/21 03:19:42;;;;;;;3.00;0.95;;;;;;;;;;4992977;28;20236;-32
2022/01/21 03:22:09;;;;;;;3.42;0.80;;;;;;;;;;4990646;28;20232;-34
2022/01/21 03:24:36;;;;;;;3.95;1.00;;;;;;;;;;4992877;28;20231;-33
2022/01/21 03:27:03;;;;;;;2.45;0.88;;;;;;;;;;4992530;28;20238;-34
2022/01/21 03:29:30;;;;;;;5.47;0.90;;;;;;;;;;4992895;28;20327;-35
2022/01/21 03:31:57;;;;;;;3.70;1.02;;;;;;;;;;4993227;28;20626;-32
2022/01/21 03:34:24;;;;;;;3.83;1.20;;;;;;;;;;4991848;28;20240;-35
2022/01/21 03:36:53;;;;;;;2.70;1.02;;;;;;;;;;4992384;28;20706;-35
2022/01/21 03:39:20;;;;;;;4.15;1.00;;;;;;;;;;4992445;28;20240;-34
2022/01/21 03:41:47;;;;;;;3.63;1.10;;;;;;;;;;4992128;28;20236;-35
2022/01/21 03:44:14;;;;;;;1.92;0.80;;;;;;;;;;4991852;28;20236;-34
2022/01/21 03:46:41;;;;;;;2.00;0.80;;;;;;;;;;4990241;28;20244;-33
2022/01/21 03:49:09;;;;;;;2.20;0.80;;;;;;;;;;4992443;28;20236;-32
2022/01/21 03:51:36;;;;;;;2.50;0.80;;;;;;;;;;4992564;28;20225;-35
2022/01/21 03:54:03;;;;;;;5.22;1.35;;;;;;;;;;4989717;28;20238;-32
2022/01/21 03:56:30;;;;;;;3.90;1.02;;;;;;;;;;4992144;28;20239;-34
2022/01/21 03:58:57;;;;;;;3.40;0.88;;;;;;;;;;4991948;28;20236;-34
2022/01/21 04:01:24;;;;;;;3.45;0.93;;;;;;;;;;4992314;28;20224;-34
2022/01/21 04:03:52;;;;;;;2.45;0.90;;;;;;;;;;4992282;28;20240;-36
2022/01/21 04:06:19;;;;;;;3.47;0.90;;;;;;;;;;4991601;28;20240;-34
2022/01/21 04:08:46;;;;;;;3.00;0.85;;;;;;;;;;4991895;28;20694;-32
2022/01/21 04:11:13;;;;;;;2.45;0.90;;;;;;;;;;4991856;28;20234;-36
2022/01/21 04:13:40;;;;;;;2.20;0.90;;;;;;;;;;4991727;28;20235;-35
2022/01/21 04:16:07;;;;;;;3.42;1.17;;;;;;;;;;4991255;28;20964;-35
2022/01/21 04:18:34;;;;;;;2.38;0.90;;;;;;;;;;4991859;28;20236;-33
2022/01/21 04:21:01;;;;;;;3.10;0.70;;;;;;;;;;4992031;28;20812;-36
2022/01/21 04:23:28;;;;;;;3.00;0.90;;;;;;;;;;4991678;28;20243;-33
2022/01/21 04:25:55;;;;;;;3.33;1.00;;;;;;;;;;4991871;28;20264;-35
2022/01/21 04:28:22;;;;;;;1.38;0.73;;;;;;;;;;4991312;28;20238;-36
2022/01/21 04:30:49;;;;;;;2.63;0.77;;;;;;;;;;4992568;28;20223;-33
2022/01/21 04:33:16;;;;;;;3.83;0.90;;;;;;;;;;4991577;28;20236;-33
2022/01/21 04:35:43;;;;;;;3.00;0.90;;;;;;;;;;4991036;28;20233;-35
2022/01/21 04:38:13;;;;;;;2.40;0.75;;;;;;;;;;4991211;28;20236;-33
2022/01/21 04:40:48;;;;;;;2.58;0.93;;;;;;;;;;4991490;28;20234;-33
2022/01/21 04:48:46;;;;;;;3.63;0.88;;;;;;;;;;4990021;28;20244;-33
2022/01/21 04:51:20;;;;;;;2.63;0.75;;;;;;;;;;4991406;28;20235;-34
2022/01/21 04:53:47;;;;;;;5.90;1.25;;;;;;;;;;4991858;28;20282;-33
2022/01/21 04:56:14;;;;;;;1.83;0.57;;;;;;;;;;4991316;28;20806;-33
2022/01/21 04:58:41;;;;;;;2.55;0.70;;;;;;;;;;4991075;28;20646;-34
2022/01/21 05:01:08;;;;;;;3.70;0.90;;;;;;;;;;4991681;28;20228;-35
2022/01/21 05:03:35;;;;;;;1.83;0.80;;;;;;;;;;4991414;28;20702;-33
2022/01/21 05:06:03;;;;;;;2.55;0.80;;;;;;;;;;4991287;28;20267;-33
2022/01/21 05:08:54;;;;;;;1.95;0.80;;;;;;;;;;4991407;28;20239;-33
2022/01/21 05:11:17;;;;;;;3.40;0.80;;;;;;;;;;4990222;28;20254;-33
2022/01/21 05:13:54;;;;;;;2.00;0.68;;;;;;;;;;4990829;28;20232;-33
2022/01/21 05:16:32;;;;;;;2.17;0.60;;;;;;;;;;4992335;28;21072;-37
2022/01/21 05:18:59;;;;;;;2.70;0.70;;;;;;;;;;4991027;28;20240;-33
2022/01/21 05:21:26;;;;;;;1.98;0.90;;;;;;;;;;4990894;28;20227;-35
2022/01/21 05:23:53;;;;;;;4.70;1.08;;;;;;;;;;4991047;28;20255;-35
2022/01/21 05:26:20;;;;;;;2.83;0.75;;;;;;;;;;4990961;28;20232;-35
2022/01/21 05:28:47;;;;;;;3.35;0.65;;;;;;;;;;4989095;28;20279;-33
2022/01/21 05:31:14;;;;;;;1.92;0.75;;;;;;;;;;4991298;28;20234;-33
2022/01/21 05:33:41;;;;;;;2.53;0.77;;;;;;;;;;4989990;28;20260;-35
2022/01/21 05:36:08;;;;;;;2.90;0.52;;;;;;;;;;4988586;28;20236;-34
2022/01/21 05:38:35;;;;;;;1.33;0.50;;;;;;;;;;4990959;28;20240;-34
2022/01/21 05:41:02;;;;;;;3.05;0.90;;;;;;;;;;4990927;28;20267;-33
2022/01/21 05:43:29;;;;;;;2.60;0.80;;;;;;;;;;4988005;28;20240;-33
2022/01/21 05:48:42;;;;;;;2.42;0.90;;;;;;;;;;4990712;28;20244;-35
2022/01/21 05:51:09;;;;;;;1.17;0.60;;;;;;;;;;4991652;28;20711;-34
2022/01/21 05:53:36;;;;;;;2.95;0.63;;;;;;;;;;4991992;28;20235;-34
2022/01/21 05:56:03;;;;;;;2.63;0.70;;;;;;;;;;4990940;28;20243;-34
2022/01/21 05:58:30;;;;;;;2.78;0.75;;;;;;;;;;4994281;28;20239;-35
2022/01/21 06:00:57;;;;;;;2.13;0.60;;;;;;;;;;5001981;28;20223;-35
2022/01/21 06:03:24;;;;;;;2.38;0.70;;;;;;;;;;5014288;28;20227;-33
2022/01/21 06:05:51;;;;;;;1.65;0.60;;;;;;;;;;5007351;28;20236;-33
2022/01/21 06:08:18;;;;;;;2.78;0.95;;;;;;;;;;4994438;28;20232;-34
2022/01/21 06:10:45;;;;;;;2.38;0.77;;;;;;;;;;4994708;28;20220;-33
2022/01/21 06:13:15;;;;;;;3.28;1.23;;;;;;;;;;4994763;28;20224;-33
2022/01/21 06:15:42;;;;;;;2.35;0.70;;;;;;;;;;4998511;28;20231;-33
2022/01/21 06:18:09;;;;;;;1.90;0.82;;;;;;;;;;4996567;28;21152;-34
2022/01/21 06:20:36;;;;;;;2.40;0.75;;;;;;;;;;4994642;28;20802;-34
2022/01/21 06:23:03;;;;;;;2.60;0.85;;;;;;;;;;4994725;28;20991;-33
2022/01/21 06:25:30;;;;;;;4.10;0.88;;;;;;;;;;4994684;28;20303;-34
2022/01/21 06:27:57;;;;;;;2.47;0.90;;;;;;;;;;4987065;28;20237;-34
2022/01/21 06:30:24;;;;;;;1.67;0.63;;;;;;;;;;4980186;28;20232;-34
2022/01/21 06:32:51;;;;;;;2.65;0.80;;;;;;;;;;5014094;28;20215;-34
2022/01/21 06:35:18;;;;;;;2.78;0.80;;;;;;;;;;5013858;28;20238;-34
2022/01/21 06:37:45;;;;;;;2.53;0.70;;;;;;;;;;4999217;28;20351;-34
2022/01/21 06:40:14;;;;;;;2.67;0.80;;;;;;;;;;4993539;28;20228;-34
2022/01/21 06:42:41;;;;;;;3.25;0.82;;;;;;;;;;4994338;28;20706;-38
2022/01/21 06:45:08;;;;;;;3.60;0.65;;;;;;;;;;4994573;28;20228;-35
2022/01/21 06:47:35;;;;;;;2.03;0.77;;;;;;;;;;5013586;28;20254;-35
2022/01/21 06:50:02;;;;;;;2.40;0.60;;;;;;;;;;5005508;28;20239;-35
2022/01/21 06:52:29;;;;;;;1.42;0.68;;;;;;;;;;4993689;28;20324;-34
2022/01/21 06:54:56;;;;;;;2.78;1.05;;;;;;;;;;4994027;28;20224;-34
2022/01/21 06:57:22;;;;;;;1.48;0.70;;;;;;;;;;4993921;28;20303;-34
2022/01/21 06:59:50;;;;;;;3.65;0.73;;;;;;;;;;4993935;28;20231;-34
2022/01/21 07:02:18;;;;;;;2.30;0.80;;;;;;;;;;4993538;28;20267;-33
2022/01/21 07:04:46;;;;;;;1.58;0.80;;;;;;;;;;4993918;28;20969;-34
2022/01/21 07:07:17;;;;;;;3.70;0.77;;;;;;;;;;4993600;28;20734;-34
2022/01/21 07:09:44;;;;;;;1.65;0.57;;;;;;;;;;4993130;28;20718;-33
2022/01/21 07:12:11;;;;;;;2.13;0.60;;;;;;;;;;4992958;28;20228;-34
2022/01/21 07:14:38;;;;;;;2.85;0.70;;;;;;;;;;4993989;28;20228;-34
2022/01/21 07:17:05;;;;;;;1.63;0.75;;;;;;;;;;5009396;28;21051;-34
2022/01/21 07:19:32;;;;;;;2.53;0.90;;;;;;;;;;5013475;28;20231;-33
2022/01/21 07:21:59;;;;;;;2.42;0.70;;;;;;;;;;5013260;28;21009;-33
2022/01/21 07:24:26;;;;;;;3.72;0.90;;;;;;;;;;4993672;28;20738;-33
2022/01/21 07:26:53;;;;;;;3.20;0.70;;;;;;;;;;4993697;28;21085;-34
2022/01/21 07:29:20;;;;;;;1.95;0.80;;;;;;;;;;4993547;28;20607;-38
2022/01/21 07:31:51;;;;;;;1.85;0.52;;;;;;;;;;5007404;28;20737;-33
2022/01/21 07:34:18;;;;;;;1.50;0.70;;;;;;;;;;5002817;28;20232;-36
2022/01/21 07:36:46;;;;;;;1.83;0.43;;;;;;;;;;4993084;28;20276;-35
2022/01/21 07:39:13;;;;;;;2.45;0.80;;;;;;;;;;4993240;28;20235;-35
2022/01/21 07:41:40;;;;;;;1.63;0.70;;;;;;;;;;5000246;28;20734;-35
2022/01/21 07:44:07;;;;;;;2.15;0.68;;;;;;;;;;5001124;28;20232;-39
2022/01/21 07:46:35;;;;;;;2.85;0.80;;;;;;;;;;5002307;28;20260;-38
2022/01/21 07:49:02;;;;;;;2.95;0.85;;;;;;;;;;4998868;28;20236;-34
2022/01/21 07:51:29;;;;;;;2.45;0.90;;;;;;;;;;4995577;28;20710;-36
2022/01/21 07:53:56;;;;;;;1.67;0.60;;;;;;;;;;4995818;28;20236;-36
2022/01/21 07:56:23;;;;;;;3.38;1.10;;;;;;;;;;4992612;28;20271;-38
2022/01/21 07:58:50;;;;;;;1.98;0.60;;;;;;;;;;4995785;28;20293;-33
2022/01/21 08:01:17;;;;;;;2.25;0.70;;;;;;;;;;4990908;28;20730;-33
2022/01/21 08:03:44;;;;;;;4.40;0.90;;;;;;;;;;4987545;28;20679;-34
2022/01/21 08:06:11;;;;;;;2.28;0.75;;;;;;;;;;4995887;28;21104;-33
2022/01/21 08:08:38;;;;;;;3.33;0.80;;;;;;;;;;4995174;28;20605;-35
2022/01/21 08:11:05;;;;;;;2.85;1.00;;;;;;;;;;4986902;28;20228;-33
2022/01/21 08:13:32;;;;;;;1.88;0.70;;;;;;;;;;4984606;28;20228;-35
2022/01/21 08:15:59;;;;;;;1.77;0.70;;;;;;;;;;4987969;28;20625;-36
2022/01/21 08:18:26;;;;;;;3.63;0.65;;;;;;;;;;4991437;28;20644;-33
2022/01/21 08:20:53;;;;;;;2.72;1.08;;;;;;;;;;4990879;28;21225;-34
2022/01/21 08:23:20;;;;;;;2.17;0.80;;;;;;;;;;4992473;28;20322;-34
2022/01/21 08:25:47;;;;;;;4.63;0.70;;;;;;;;;;4992406;28;20242;-36
2022/01/21 08:28:14;;;;;;;4.28;0.90;;;;;;;;;;4997110;28;20236;-35
2022/01/21 08:30:41;;;;;;;2.50;0.98;;;;;;;;;;4990996;28;20279;-34
2022/01/21 08:33:08;;;;;;;3.05;0.77;;;;;;;;;;4980864;28;20235;-35
2022/01/21 08:35:36;;;;;;;2.35;0.70;;;;;;;;;;4995070;28;20940;-37
2022/01/21 08:38:03;;;;;;;2.08;0.95;;;;;;;;;;4992255;28;20240;-33
2022/01/21 08:40:30;;;;;;;2.17;0.93;;;;;;;;;;4993567;28;20228;-34
2022/01/21 08:42:57;;;;;;;4.00;0.88;;;;;;;;;;4997057;28;20719;-35
2022/01/21 08:45:24;;;;;;;3.72;1.02;;;;;;;;;;5000824;28;21102;-38
2022/01/21 08:47:51;;;;;;;4.20;0.77;;;;;;;;;;5001148;28;20734;-36
2022/01/21 08:50:18;;;;;;;4.22;0.93;;;;;;;;;;4999242;28;20998;-36
2022/01/21 08:52:45;;;;;;;4.03;0.95;;;;;;;;;;5000109;28;20721;-36
2022/01/21 08:55:12;;;;;;;6.70;1.10;;;;;;;;;;4991830;28;21042;-35
2022/01/21 08:57:41;;;;;;;8.95;1.17;;;;;;;;;;4991910;28;20423;-39
2022/01/21 09:00:08;;;;;;;6.65;1.33;;;;;;;;;;4991945;28;20445;-36
2022/01/21 09:02:35;;;;;;;10.13;1.30;;;;;;;;;;4997865;28;20826;-37
2022/01/21 09:05:02;;;;;;;5.88;1.23;;;;;;;;;;4991736;28;21076;-33
2022/01/21 09:07:29;;;;;;;4.50;0.95;;;;;;;;;;4991901;28;20233;-40
2022/01/21 09:09:56;;;;;;;8.27;1.17;;;;;;;;;;4992117;28;20258;-36
2022/01/21 09:12:27;;;;;;;8.02;1.10;;;;;;;;;;4990925;28;20228;-40
2022/01/21 09:14:55;;;;;;;6.55;1.00;;;;;;;;;;4991891;28;20258;-40
2022/01/21 09:17:22;;;;;;;3.80;1.15;;;;;;;;;;5010562;28;20235;-42
2022/01/21 09:19:49;;;;;;;9.07;1.30;;;;;;;;;;5011276;28;20231;-42
2022/01/21 09:22:15;;;;;;;6.45;1.25;;;;;;;;;;5010455;28;20470;-40
2022/01/21 09:24:42;;;;;;;4.63;1.05;;;;;;;;;;4997735;28;20232;-41
2022/01/21 09:27:09;;;;;;;6.05;1.25;;;;;;;;;;4992171;28;20232;-41
2022/01/21 09:29:36;;;;;;;24.92;1.23;;;;;;;;;;4994178;28;20232;-37
2022/01/21 09:32:03;;;;;;;4.45;0.80;;;;;;;;;;4995210;28;20228;-38
2022/01/21 09:34:31;;;;;;;4.93;1.10;;;;;;;;;;4994270;28;21091;-34
2022/01/21 09:36:57;;;;;;;4.10;1.20;;;;;;;;;;4994189;28;20232;-34
2022/01/21 09:39:24;;;;;;;6.45;1.17;;;;;;;;;;4995351;28;20231;-32
2022/01/21 09:41:53;;;;;;;2.47;0.98;;;;;;;;;;4987862;28;20235;-31
2022/01/21 09:44:20;;;;;;;4.60;1.25;;;;;;;;;;4986156;28;20243;-33
2022/01/21 09:46:49;;;;;;;8.02;1.20;;;;;;;;;;4988725;28;20997;-33
2022/01/21 09:51:49;;;;;;;6.35;1.25;;;;;;;;;;4997486;28;20231;-33
2022/01/21 09:54:16;;;;;;;4.72;1.17;;;;;;;;;;5000463;28;20239;-35
2022/01/21 09:56:45;;;;;;;4.75;1.13;;;;;;;;;;4997006;28;20671;-34
2022/01/21 09:59:12;;;;;;;11.00;1.20;;;;;;;;;;5003554;28;20243;-36
2022/01/21 10:01:39;;;;;;;6.40;1.83;;;;;;;;;;5014695;28;20238;-35
2022/01/21 10:04:06;;;;;;;8.27;1.10;;;;;;;;;;5014605;28;20294;-35
2022/01/21 10:06:33;;;;;;;4.30;0.88;;;;;;;;;;4995813;28;20707;-32
2022/01/21 10:09:00;;;;;;;5.15;0.90;;;;;;;;;;4993648;28;20236;-36
2022/01/21 10:11:27;;;;;;;5.80;1.40;;;;;;;;;;4995020;28;20236;-32
2022/01/21 10:13:54;;;;;;;5.38;1.00;;;;;;;;;;4994523;28;20235;-32
2022/01/21 10:16:21;;;;;;;6.22;1.50;;;;;;;;;;4998070;28;20423;-33
2022/01/21 10:18:48;;;;;;;5.35;1.42;;;;;;;;;;4989812;28;20516;-32
2022/01/21 10:21:15;;;;;;;7.47;1.30;;;;;;;;;;4992557;28;20443;-32
2022/01/21 10:23:42;;;;;;;5.20;1.30;;;;;;;;;;4987148;28;20236;-32
2022/01/21 10:26:09;;;;;;;5.88;0.98;;;;;;;;;;4975202;28;20951;-33
2022/01/21 10:28:36;;;;;;;4.10;1.23;;;;;;;;;;4976219;28;20632;-33
2022/01/21 10:31:03;;;;;;;4.70;1.00;;;;;;;;;;4993217;28;20231;-35
2022/01/21 10:33:30;;;;;;;6.22;1.20;;;;;;;;;;5002697;28;20240;-33
2022/01/21 10:35:57;;;;;;;6.05;0.80;;;;;;;;;;4991897;28;20907;-31
2022/01/21 10:38:30;;;;;;;4.00;0.90;;;;;;;;;;4986476;28;20357;-37
2022/01/21 10:40:57;;;;;;;6.32;1.20;;;;;;;;;;4988314;28;20232;-32
2022/01/21 10:43:24;;;;;;;6.25;1.40;;;;;;;;;;4991246;28;20335;-32
2022/01/21 10:45:51;;;;;;;5.88;1.30;;;;;;;;;;4986401;28;21013;-33
2022/01/21 10:48:18;;;;;;;6.18;1.30;;;;;;;;;;4980251;28;20240;-34
2022/01/21 10:50:45;;;;;;;6.97;1.30;;;;;;;;;;4990431;28;20502;-34
2022/01/21 10:53:12;;;;;;;10.20;1.60;;;;;;;;;;4989302;28;20570;-33
2022/01/21 10:55:39;;;;;;;2.58;1.00;;;;;;;;;;4989668;28;20232;-31
2022/01/21 10:58:06;;;;;;;8.57;1.20;;;;;;;;;;4990518;28;20840;-30
2022/01/21 11:00:33;;;;;;;6.32;1.50;;;;;;;;;;4988592;28;20232;-34
2022/01/21 11:03:00;;;;;;;11.18;1.48;;;;;;;;;;4990013;28;20244;-33
2022/01/21 11:05:31;;;;;;;8.27;1.17;;;;;;;;;;4988121;28;21516;-29
2022/01/21 11:08:01;;;;;;;6.20;1.17;;;;;;;;;;4990193;28;20232;-31
2022/01/21 11:10:28;;;;;;;3.83;1.08;;;;;;;;;;4981105;28;20247;-31
2022/01/21 11:12:55;;;;;;;11.63;1.42;;;;;;;;;;4989167;28;20495;-32
2022/01/21 11:15:25;;;;;;;3.25;1.10;;;;;;;;;;4989301;28;20240;-32
2022/01/21 11:17:52;;;;;;;3.08;1.10;;;;;;;;;;4990041;28;20236;-32
2022/01/21 11:20:21;;;;;;;6.85;1.33;;;;;;;;;;4989535;28;20314;-31
2022/01/21 11:22:48;;;;;;;5.10;1.30;;;;;;;;;;4988960;28;20236;-31
2022/01/21 11:25:15;;;;;;;4.18;1.17;;;;;;;;;;4990104;28;20233;-32
2022/01/21 11:27:42;;;;;;;5.32;1.35;;;;;;;;;;4988431;28;20236;-32
2022/01/21 11:30:09;;;;;;;5.03;1.17;;;;;;;;;;4989965;28;20236;-28
2022/01/21 11:32:36;;;;;;;18.60;1.40;;;;;;;;;;4988560;28;20423;-33
2022/01/21 11:35:03;;;;;;;4.07;1.17;;;;;;;;;;4982067;28;20233;-35
2022/01/21 11:37:30;;;;;;;7.25;1.33;;;;;;;;;;4988193;28;20240;-32
2022/01/21 11:39:57;;;;;;;7.38;1.20;;;;;;;;;;4988267;28;20232;-30
2022/01/21 11:42:24;;;;;;;3.03;1.20;;;;;;;;;;4987958;28;20248;-34
2022/01/21 11:45:02;;;;;;;4.45;1.17;;;;;;;;;;4989272;28;20471;-31
2022/01/21 11:47:48;;;;;;;3.88;0.90;;;;;;;;;;4983554;28;20244;-36
2022/01/21 11:50:18;;;;;;;2.75;0.93;;;;;;;;;;4985063;28;20228;-31
2022/01/21 11:52:45;;;;;;;3.15;0.88;;;;;;;;;;4989139;28;20243;-32
2022/01/21 11:55:12;;;;;;;4.28;1.05;;;;;;;;;;4989052;28;20240;-30
2022/01/21 11:57:39;;;;;;;2.30;0.93;;;;;;;;;;4987983;28;20286;-34
2022/01/21 12:00:16;;;;;;;2.85;1.00;;;;;;;;;;4988838;28;20246;-32
2022/01/21 12:02:43;;;;;;;3.42;0.98;;;;;;;;;;4991237;28;20275;-32
2022/01/21 12:05:10;;;;;;;4.32;1.20;;;;;;;;;;4988002;28;20236;-31
2022/01/21 12:07:40;;;;;;;4.45;1.13;;;;;;;;;;4989118;28;20494;-38
2022/01/21 12:10:07;;;;;;;6.30;1.25;;;;;;;;;;4988117;28;20235;-32
2022/01/21 12:12:34;;;;;;;6.32;1.27;;;;;;;;;;4988481;28;20242;-34
2022/01/21 12:15:04;;;;;;;3.30;1.15;;;;;;;;;;4989053;28;20692;-31
2022/01/21 12:17:31;;;;;;;4.72;0.98;;;;;;;;;;4985171;28;20240;-32
2022/01/21 12:19:59;;;;;;;4.53;1.15;;;;;;;;;;4988809;28;20961;-32
2022/01/21 12:22:26;;;;;;;4.60;1.10;;;;;;;;;;4988476;28;20244;-31
2022/01/21 12:24:54;;;;;;;4.85;1.25;;;;;;;;;;4990805;28;20435;-29
2022/01/21 12:27:21;;;;;;;6.50;1.60;;;;;;;;;;4985954;28;20310;-34
2022/01/21 12:29:48;;;;;;;8.77;1.50;;;;;;;;;;4988523;28;20236;-31
2022/01/21 12:32:36;;;;;;;5.70;1.15;;;;;;;;;;4988553;28;20236;-33
2022/01/21 12:35:05;;;;;;;6.22;1.33;;;;;;;;;;4981153;28;20755;-32
2022/01/21 12:37:52;;;;;;;6.75;1.27;;;;;;;;;;4987381;28;20446;-31
2022/01/21 12:40:19;;;;;;;8.13;1.55;;;;;;;;;;4986291;28;20534;-32
2022/01/21 12:42:46;;;;;;;5.15;1.17;;;;;;;;;;4978934;28;20297;-30
2022/01/21 12:45:13;;;;;;;6.25;1.30;;;;;;;;;;4986858;28;20230;-31
2022/01/21 12:47:43;;;;;;;4.88;1.40;;;;;;;;;;4980736;28;20252;-32
2022/01/21 12:50:12;;;;;;;4.40;1.50;;;;;;;;;;4982919;28;20259;-32
2022/01/21 12:58:01;;;;;;;4.68;1.40;;;;;;;;;;4977934;28;20324;-33
2022/01/21 13:00:28;;;;;;;9.07;1.38;;;;;;;;;;4981497;28;20744;-32
2022/01/21 13:02:55;;;;;;;5.18;1.23;;;;;;;;;;4983337;28;20699;-31
2022/01/21 13:05:22;;;;;;;6.75;1.55;;;;;;;;;;4990809;28;20240;-40
2022/01/21 13:07:52;;;;;;;5.47;1.50;;;;;;;;;;4984704;28;20442;-39
2022/01/21 13:10:19;;;;;;;6.43;1.60;;;;;;;;;;4990828;28;20613;-34
2022/01/21 13:13:02;;;;;;;5.45;1.30;;;;;;;;;;4990251;28;20243;-33
2022/01/21 13:15:29;;;;;;;4.97;1.40;;;;;;;;;;4988844;28;20231;-34
2022/01/21 13:17:56;;;;;;;2.67;1.17;;;;;;;;;;4993284;28;20234;-35
2022/01/21 13:20:23;;;;;;;5.25;1.50;;;;;;;;;;4986220;28;20223;-32
2022/01/21 13:22:50;;;;;;;4.00;1.55;;;;;;;;;;4987969;28;20239;-32
2022/01/21 13:25:18;;;;;;;7.07;1.73;;;;;;;;;;4987190;28;20229;-33
2022/01/21 13:27:45;;;;;;;5.63;1.00;;;;;;;;;;4989070;28;20228;-33
2022/01/21 13:30:12;;;;;;;4.95;1.40;;;;;;;;;;4987237;28;20422;-33
2022/01/21 13:32:39;;;;;;;4.47;1.30;;;;;;;;;;4982805;28;20243;-36
2022/01/21 13:35:09;;;;;;;5.15;1.10;;;;;;;;;;4979071;28;20240;-37
2022/01/21 13:37:36;;;;;;;4.05;1.50;;;;;;;;;;4976660;28;20228;-38
2022/01/21 13:40:04;;;;;;;2.47;1.02;;;;;;;;;;4976805;28;20711;-39
2022/01/21 13:42:32;;;;;;;4.87;1.17;;;;;;;;;;4977177;28;20425;-36
2022/01/21 13:45:01;;;;;;;5.63;1.42;;;;;;;;;;4986065;28;20246;-35
2022/01/21 13:47:28;;;;;;;10.45;1.48;;;;;;;;;;4987093;28;20243;-41
2022/01/21 13:49:55;;;;;;;17.33;1.70;;;;;;;;;;4990042;28;20473;-42
2022/01/21 13:52:22;;;;;;;11.10;1.80;;;;;;;;;;4990801;28;20455;-33
2022/01/21 13:54:50;;;;;;;5.20;1.23;;;;;;;;;;4990347;28;20236;-33
2022/01/21 13:57:17;;;;;;;8.85;1.30;;;;;;;;;;4990780;28;20715;-32
2022/01/21 13:59:44;;;;;;;3.63;1.05;;;;;;;;;;4991320;28;20244;-33
2022/01/21 14:02:11;;;;;;;7.13;1.33;;;;;;;;;;4991349;28;20240;-34
2022/01/21 14:04:38;;;;;;;4.10;1.20;;;;;;;;;;4996532;28;20232;-34
2022/01/21 14:07:05;;;;;;;5.47;1.00;;;;;;;;;;4993074;28;20243;-32
2022/01/21 14:09:32;;;;;;;6.53;1.38;;;;;;;;;;4990262;28;20323;-31
2022/01/21 14:12:00;;;;;;;9.90;1.48;;;;;;;;;;4989050;28;20252;-34
2022/01/21 14:14:27;;;;;;;4.28;0.98;;;;;;;;;;4990166;28;20232;-33
2022/01/21 14:16:54;;;;;;;3.50;1.33;;;;;;;;;;4999571;28;20239;-36
2022/01/21 14:19:22;;;;;;;3.78;1.10;;;;;;;;;;4974232;28;20244;-32
2022/01/21 14:21:50;;;;;;;5.15;1.17;;;;;;;;;;4994620;28;20240;-32
2022/01/21 14:24:17;;;;;;;6.18;1.45;;;;;;;;;;4993926;28;20228;-34
2022/01/21 14:26:45;;;;;;;4.25;1.42;;;;;;;;;;4994760;28;20232;-34
2022/01/21 14:29:17;;;;;;;6.82;1.48;;;;;;;;;;4993655;28;20702;-32
2022/01/21 14:31:44;;;;;;;14.73;1.80;;;;;;;;;;4993730;28;20236;-31
2022/01/21 14:34:11;;;;;;;15.93;1.77;;;;;;;;;;4994224;28;20232;-31
2022/01/21 14:36:38;;;;;;;10.90;1.27;;;;;;;;;;4994456;28;20223;-33
2022/01/21 14:39:05;;;;;;;15.23;2.10;;;;;;;;;;4994393;28;20240;-33
2022/01/21 14:41:32;;;;;;;13.13;1.92;;;;;;;;;;4993623;28;20243;-30
2022/01/21 14:44:18;;;;;;;14.52;2.05;;;;;;;;;;4994505;28;20226;-34
2022/01/21 14:46:45;;;;;;;9.25;1.67;;;;;;;;;;5007534;28;20246;-33
2022/01/21 14:49:13;;;;;;;9.02;1.60;;;;;;;;;;5013645;28;20737;-33
2022/01/21 14:51:46;;;;;;;6.82;1.63;;;;;;;;;;5013913;28;20232;-34
2022/01/21 14:54:13;;;;;;;9.93;1.20;;;;;;;;;;5012346;28;20604;-33
2022/01/21 14:56:44;;;;;;;5.20;1.55;;;;;;;;;;5013702;28;20238;-35
2022/01/21 14:59:13;;;;;;;9.75;1.30;;;;;;;;;;5013748;28;20235;-34
2022/01/21 15:01:40;;;;;;;7.18;1.35;;;;;;;;;;5006544;28;20665;-32
2022/01/21 15:04:07;;;;;;;5.28;1.35;;;;;;;;;;4993617;28;20652;-34
2022/01/21 15:06:35;;;;;;;6.00;1.50;;;;;;;;;;4993379;28;20644;-36
2022/01/21 15:09:02;;;;;;;5.30;1.58;;;;;;;;;;4994073;28;20231;-30
2022/01/21 15:16:42;;;;;;;4.90;1.00;;;;;;;;;;4993752;28;20232;-30
2022/01/21 15:19:12;;;;;;;5.13;1.35;;;;;;;;;;4993726;28;20243;-33
2022/01/21 15:21:39;;;;;;;5.13;1.40;;;;;;;;;;4993136;28;20240;-30
2022/01/21 15:24:06;;;;;;;7.32;1.50;;;;;;;;;;4993682;28;20228;-34
2022/01/21 15:26:48;;;;;;;4.13;1.20;;;;;;;;;;4993008;28;20247;-30
2022/01/21 15:29:15;;;;;;;4.90;1.10;;;;;;;;;;4993176;28;20236;-30
2022/01/21 15:31:42;;;;;;;5.60;1.25;;;;;;;;;;5005312;28;20235;-31
2022/01/21 15:34:09;;;;;;;4.40;1.05;;;;;;;;;;4992708;28;20279;-32
2022/01/21 15:36:41;;;;;;;6.28;1.17;;;;;;;;;;4993027;28;20238;-29
2022/01/21 15:39:08;;;;;;;5.88;1.20;;;;;;;;;;4992526;28;20745;-29
2022/01/21 15:41:35;;;;;;;3.00;1.13;;;;;;;;;;4993832;28;20238;-34
2022/01/21 15:44:02;;;;;;;5.55;1.42;;;;;;;;;;4992920;28;20235;-31